sensor_id;sensor_type;location;lat;lon;timestamp;pressure;altitude;pressure_sealevel;temperature
11849;BMP180;5983;49.966;8.052;2023-06-26T00:02:15;100461.00;;;19.90
11849;BMP180;5983;49.966;8.052;2023-06-26T00:04:42;100461.00;;;19.90
11849;BMP180;5983;49.966;8.052;2023-06-26T00:07:10;100467.00;;;19.90
11849;BMP180;5983;49.966;8.052;2023-06-26T00:09:37;100459.00;;;19.90
11849;BMP180;5983;49.966;8.052;2023-06-26T00:12:05;100458.00;;;19.80
11849;BMP180;5983;49.966;8.052;2023-06-26T00:14:33;100460.00;;;19.80
11849;BMP180;5983;49.966;8.052;2023-06-26T00:17:00;100452.00;;;19.70
11849;BMP180;5983;49.966;8.052;2023-06-26T00:19:28;100457.00;;;19.60
11849;BMP180;5983;49.966;8.052;2023-06-26T00:21:55;100449.00;;;19.60
11849;BMP180;5983;49.966;8.052;2023-06-26T00:24:21;100447.00;;;19.50
11849;BMP180;5983;49.966;8.052;2023-06-26T00:26:48;100444.00;;;19.40
11849;BMP180;5983;49.966;8.052;2023-06-26T00:29:16;100439.00;;;19.40
11849;BMP180;5983;49.966;8.052;2023-06-26T00:31:44;100438.00;;;19.40
11849;BMP180;5983;49.966;8.052;2023-06-26T00:34:11;100442.00;;;19.40
11849;BMP180;5983;49.966;8.052;2023-06-26T00:36:37;100438.00;;;19.40
11849;BMP180;5983;49.966;8.052;2023-06-26T00:39:04;100431.00;;;19.30
11849;BMP180;5983;49.966;8.052;2023-06-26T00:41:31;100437.00;;;19.30
11849;BMP180;5983;49.966;8.052;2023-06-26T00:43:58;100438.00;;;19.20
11849;BMP180;5983;49.966;8.052;2023-06-26T00:46:24;100435.00;;;19.20
11849;BMP180;5983;49.966;8.052;2023-06-26T00:48:54;100424.00;;;19.20
11849;BMP180;5983;49.966;8.052;2023-06-26T00:51:21;100423.00;;;19.20
11849;BMP180;5983;49.966;8.052;2023-06-26T00:53:49;100426.00;;;19.10
11849;BMP180;5983;49.966;8.052;2023-06-26T00:56:18;100432.00;;;19.10
11849;BMP180;5983;49.966;8.052;2023-06-26T00:58:45;100438.00;;;19.00
11849;BMP180;5983;49.966;8.052;2023-06-26T01:01:12;100429.00;;;18.90
11849;BMP180;5983;49.966;8.052;2023-06-26T01:03:44;100440.00;;;19.00
11849;BMP180;5983;49.966;8.052;2023-06-26T01:06:14;100439.00;;;18.90
11849;BMP180;5983;49.966;8.052;2023-06-26T01:08:44;100444.00;;;19.00
11849;BMP180;5983;49.966;8.052;2023-06-26T01:11:12;100441.00;;;19.00
11849;BMP180;5983;49.966;8.052;2023-06-26T01:13:41;100437.00;;;19.00
11849;BMP180;5983;49.966;8.052;2023-06-26T01:16:10;100436.00;;;18.90
11849;BMP180;5983;49.966;8.052;2023-06-26T01:18:38;100434.00;;;18.90
11849;BMP180;5983;49.966;8.052;2023-06-26T01:21:08;100432.00;;;18.90
11849;BMP180;5983;49.966;8.052;2023-06-26T01:23:49;100425.00;;;18.90
11849;BMP180;5983;49.966;8.052;2023-06-26T01:26:20;100433.00;;;18.80
11849;BMP180;5983;49.966;8.052;2023-06-26T01:28:50;100422.00;;;18.70
11849;BMP180;5983;49.966;8.052;2023-06-26T01:31:19;100425.00;;;18.60
11849;BMP180;5983;49.966;8.052;2023-06-26T01:33:47;100416.00;;;18.50
11849;BMP180;5983;49.966;8.052;2023-06-26T01:36:14;100413.00;;;18.50
11849;BMP180;5983;49.966;8.052;2023-06-26T01:38:41;100409.00;;;18.50
11849;BMP180;5983;49.966;8.052;2023-06-26T01:41:07;100416.00;;;18.50
11849;BMP180;5983;49.966;8.052;2023-06-26T01:43:44;100408.00;;;18.60
11849;BMP180;5983;49.966;8.052;2023-06-26T01:46:25;100407.00;;;18.50
11849;BMP180;5983;49.966;8.052;2023-06-26T01:49:12;100402.00;;;18.50
11849;BMP180;5983;49.966;8.052;2023-06-26T01:51:47;100424.00;;;18.40
11849;BMP180;5983;49.966;8.052;2023-06-26T01:54:21;100407.00;;;18.40
11849;BMP180;5983;49.966;8.052;2023-06-26T01:56:52;100420.00;;;18.30
11849;BMP180;5983;49.966;8.052;2023-06-26T01:59:24;100426.00;;;18.30
11849;BMP180;5983;49.966;8.052;2023-06-26T02:01:52;100420.00;;;18.30
11849;BMP180;5983;49.966;8.052;2023-06-26T02:04:19;100407.00;;;18.20
11849;BMP180;5983;49.966;8.052;2023-06-26T02:06:46;100406.00;;;18.10
11849;BMP180;5983;49.966;8.052;2023-06-26T02:09:13;100418.00;;;18.10
11849;BMP180;5983;49.966;8.052;2023-06-26T02:11:40;100412.00;;;18.10
11849;BMP180;5983;49.966;8.052;2023-06-26T02:14:07;100413.00;;;18.10
11849;BMP180;5983;49.966;8.052;2023-06-26T02:16:36;100408.00;;;18.00
11849;BMP180;5983;49.966;8.052;2023-06-26T02:19:02;100411.00;;;17.90
11849;BMP180;5983;49.966;8.052;2023-06-26T02:21:29;100407.00;;;17.90
11849;BMP180;5983;49.966;8.052;2023-06-26T02:23:56;100414.00;;;17.90
11849;BMP180;5983;49.966;8.052;2023-06-26T02:26:23;100421.00;;;18.00
11849;BMP180;5983;49.966;8.052;2023-06-26T02:28:50;100413.00;;;17.90
11849;BMP180;5983;49.966;8.052;2023-06-26T02:31:17;100416.00;;;17.90
11849;BMP180;5983;49.966;8.052;2023-06-26T02:33:45;100409.00;;;17.90
11849;BMP180;5983;49.966;8.052;2023-06-26T02:36:12;100413.00;;;17.90
11849;BMP180;5983;49.966;8.052;2023-06-26T02:38:38;100411.00;;;17.80
11849;BMP180;5983;49.966;8.052;2023-06-26T02:41:05;100408.00;;;17.80
11849;BMP180;5983;49.966;8.052;2023-06-26T02:43:32;100402.00;;;17.80
11849;BMP180;5983;49.966;8.052;2023-06-26T02:45:59;100400.00;;;17.70
11849;BMP180;5983;49.966;8.052;2023-06-26T02:48:26;100401.00;;;17.70
11849;BMP180;5983;49.966;8.052;2023-06-26T02:50:54;100398.00;;;17.70
11849;BMP180;5983;49.966;8.052;2023-06-26T02:53:20;100401.00;;;17.70
11849;BMP180;5983;49.966;8.052;2023-06-26T02:55:47;100408.00;;;17.60
11849;BMP180;5983;49.966;8.052;2023-06-26T02:58:14;100405.00;;;17.60
11849;BMP180;5983;49.966;8.052;2023-06-26T03:00:41;100406.00;;;17.50
11849;BMP180;5983;49.966;8.052;2023-06-26T03:03:08;100398.00;;;17.50
11849;BMP180;5983;49.966;8.052;2023-06-26T03:05:35;100399.00;;;17.40
11849;BMP180;5983;49.966;8.052;2023-06-26T03:08:04;100405.00;;;17.40
11849;BMP180;5983;49.966;8.052;2023-06-26T03:10:31;100407.00;;;17.40
11849;BMP180;5983;49.966;8.052;2023-06-26T03:12:58;100410.00;;;17.30
11849;BMP180;5983;49.966;8.052;2023-06-26T03:15:25;100401.00;;;17.20
11849;BMP180;5983;49.966;8.052;2023-06-26T03:17:52;100405.00;;;17.20
11849;BMP180;5983;49.966;8.052;2023-06-26T03:20:19;100402.00;;;17.10
11849;BMP180;5983;49.966;8.052;2023-06-26T03:22:45;100392.00;;;17.00
11849;BMP180;5983;49.966;8.052;2023-06-26T03:25:14;100395.00;;;17.10
11849;BMP180;5983;49.966;8.052;2023-06-26T03:27:40;100394.00;;;17.10
11849;BMP180;5983;49.966;8.052;2023-06-26T03:30:09;100397.00;;;17.10
11849;BMP180;5983;49.966;8.052;2023-06-26T03:32:36;100399.00;;;17.10
11849;BMP180;5983;49.966;8.052;2023-06-26T03:35:03;100397.00;;;17.10
11849;BMP180;5983;49.966;8.052;2023-06-26T03:37:30;100389.00;;;17.20
11849;BMP180;5983;49.966;8.052;2023-06-26T03:39:57;100396.00;;;17.20
11849;BMP180;5983;49.966;8.052;2023-06-26T03:42:25;100390.00;;;17.20
11849;BMP180;5983;49.966;8.052;2023-06-26T03:44:52;100394.00;;;17.30
11849;BMP180;5983;49.966;8.052;2023-06-26T03:47:19;100384.00;;;17.20
11849;BMP180;5983;49.966;8.052;2023-06-26T03:49:46;100386.00;;;17.10
11849;BMP180;5983;49.966;8.052;2023-06-26T03:52:12;100404.00;;;17.20
11849;BMP180;5983;49.966;8.052;2023-06-26T03:54:39;100410.00;;;17.30
11849;BMP180;5983;49.966;8.052;2023-06-26T03:57:07;100395.00;;;17.30
11849;BMP180;5983;49.966;8.052;2023-06-26T03:59:36;100398.00;;;17.30
11849;BMP180;5983;49.966;8.052;2023-06-26T04:02:03;100389.00;;;17.40
11849;BMP180;5983;49.966;8.052;2023-06-26T04:04:30;100386.00;;;17.40
11849;BMP180;5983;49.966;8.052;2023-06-26T04:06:57;100391.00;;;17.50
11849;BMP180;5983;49.966;8.052;2023-06-26T04:09:25;100395.00;;;17.50
11849;BMP180;5983;49.966;8.052;2023-06-26T04:11:51;100399.00;;;17.60
11849;BMP180;5983;49.966;8.052;2023-06-26T04:14:18;100398.00;;;17.60
11849;BMP180;5983;49.966;8.052;2023-06-26T04:16:46;100396.00;;;17.70
11849;BMP180;5983;49.966;8.052;2023-06-26T04:19:13;100388.00;;;17.80
11849;BMP180;5983;49.966;8.052;2023-06-26T04:21:40;100392.00;;;17.80
11849;BMP180;5983;49.966;8.052;2023-06-26T04:24:07;100399.00;;;17.90
11849;BMP180;5983;49.966;8.052;2023-06-26T04:26:34;100400.00;;;18.00
11849;BMP180;5983;49.966;8.052;2023-06-26T04:29:01;100402.00;;;18.00
11849;BMP180;5983;49.966;8.052;2023-06-26T04:31:29;100398.00;;;18.10
11849;BMP180;5983;49.966;8.052;2023-06-26T04:33:57;100394.00;;;18.20
11849;BMP180;5983;49.966;8.052;2023-06-26T04:36:25;100396.00;;;18.10
11849;BMP180;5983;49.966;8.052;2023-06-26T04:38:54;100394.00;;;18.20
11849;BMP180;5983;49.966;8.052;2023-06-26T04:41:21;100397.00;;;18.20
11849;BMP180;5983;49.966;8.052;2023-06-26T04:43:48;100395.00;;;18.30
11849;BMP180;5983;49.966;8.052;2023-06-26T04:46:15;100393.00;;;18.30
11849;BMP180;5983;49.966;8.052;2023-06-26T04:49:04;100393.00;;;18.40
11849;BMP180;5983;49.966;8.052;2023-06-26T04:51:31;100402.00;;;18.50
11849;BMP180;5983;49.966;8.052;2023-06-26T04:53:58;100397.00;;;18.50
11849;BMP180;5983;49.966;8.052;2023-06-26T04:56:24;100406.00;;;18.60
11849;BMP180;5983;49.966;8.052;2023-06-26T04:58:51;100402.00;;;18.70
11849;BMP180;5983;49.966;8.052;2023-06-26T05:01:18;100400.00;;;18.80
11849;BMP180;5983;49.966;8.052;2023-06-26T05:03:45;100398.00;;;18.90
11849;BMP180;5983;49.966;8.052;2023-06-26T05:06:17;100397.00;;;18.90
11849;BMP180;5983;49.966;8.052;2023-06-26T05:08:44;100405.00;;;19.10
11849;BMP180;5983;49.966;8.052;2023-06-26T05:11:11;100402.00;;;19.20
11849;BMP180;5983;49.966;8.052;2023-06-26T05:13:38;100407.00;;;19.30
11849;BMP180;5983;49.966;8.052;2023-06-26T05:16:05;100406.00;;;19.30
11849;BMP180;5983;49.966;8.052;2023-06-26T05:18:34;100403.00;;;19.40
11849;BMP180;5983;49.966;8.052;2023-06-26T05:21:02;100401.00;;;19.50
11849;BMP180;5983;49.966;8.052;2023-06-26T05:23:33;100402.00;;;19.60
11849;BMP180;5983;49.966;8.052;2023-06-26T05:26:01;100402.00;;;19.60
11849;BMP180;5983;49.966;8.052;2023-06-26T05:28:29;100394.00;;;19.70
11849;BMP180;5983;49.966;8.052;2023-06-26T05:30:58;100392.00;;;19.90
11849;BMP180;5983;49.966;8.052;2023-06-26T05:33:26;100398.00;;;19.90
11849;BMP180;5983;49.966;8.052;2023-06-26T05:35:55;100396.00;;;20.00
11849;BMP180;5983;49.966;8.052;2023-06-26T05:38:22;100392.00;;;20.10
11849;BMP180;5983;49.966;8.052;2023-06-26T05:40:52;100393.00;;;20.20
11849;BMP180;5983;49.966;8.052;2023-06-26T05:43:19;100401.00;;;20.20
11849;BMP180;5983;49.966;8.052;2023-06-26T05:45:47;100394.00;;;20.40
11849;BMP180;5983;49.966;8.052;2023-06-26T05:48:14;100395.00;;;20.50
11849;BMP180;5983;49.966;8.052;2023-06-26T05:50:43;100404.00;;;20.70
11849;BMP180;5983;49.966;8.052;2023-06-26T05:53:11;100390.00;;;20.80
11849;BMP180;5983;49.966;8.052;2023-06-26T05:55:39;100392.00;;;20.90
11849;BMP180;5983;49.966;8.052;2023-06-26T05:58:10;100392.00;;;21.00
11849;BMP180;5983;49.966;8.052;2023-06-26T06:00:39;100407.00;;;21.10
11849;BMP180;5983;49.966;8.052;2023-06-26T06:03:06;100398.00;;;21.20
11849;BMP180;5983;49.966;8.052;2023-06-26T06:05:34;100398.00;;;21.40
11849;BMP180;5983;49.966;8.052;2023-06-26T06:08:01;100405.00;;;21.60
11849;BMP180;5983;49.966;8.052;2023-06-26T06:10:28;100399.00;;;21.70
11849;BMP180;5983;49.966;8.052;2023-06-26T06:12:55;100401.00;;;21.80
11849;BMP180;5983;49.966;8.052;2023-06-26T06:15:23;100397.00;;;21.90
11849;BMP180;5983;49.966;8.052;2023-06-26T06:17:50;100386.00;;;22.10
11849;BMP180;5983;49.966;8.052;2023-06-26T06:20:17;100393.00;;;22.20
11849;BMP180;5983;49.966;8.052;2023-06-26T06:22:46;100385.00;;;22.30
11849;BMP180;5983;49.966;8.052;2023-06-26T06:25:15;100385.00;;;22.40
11849;BMP180;5983;49.966;8.052;2023-06-26T06:27:42;100382.00;;;22.50
11849;BMP180;5983;49.966;8.052;2023-06-26T06:30:11;100394.00;;;22.60
11849;BMP180;5983;49.966;8.052;2023-06-26T06:32:39;100386.00;;;22.70
11849;BMP180;5983;49.966;8.052;2023-06-26T06:35:07;100390.00;;;22.80
11849;BMP180;5983;49.966;8.052;2023-06-26T06:37:36;100393.00;;;22.90
11849;BMP180;5983;49.966;8.052;2023-06-26T06:40:05;100384.00;;;23.00
11849;BMP180;5983;49.966;8.052;2023-06-26T06:42:32;100398.00;;;23.10
11849;BMP180;5983;49.966;8.052;2023-06-26T06:45:01;100403.00;;;23.20
11849;BMP180;5983;49.966;8.052;2023-06-26T06:47:28;100406.00;;;23.40
11849;BMP180;5983;49.966;8.052;2023-06-26T06:49:56;100409.00;;;23.50
11849;BMP180;5983;49.966;8.052;2023-06-26T06:52:23;100417.00;;;23.60
11849;BMP180;5983;49.966;8.052;2023-06-26T06:54:55;100412.00;;;23.80
11849;BMP180;5983;49.966;8.052;2023-06-26T06:57:25;100423.00;;;24.00
11849;BMP180;5983;49.966;8.052;2023-06-26T06:59:52;100415.00;;;24.10
11849;BMP180;5983;49.966;8.052;2023-06-26T07:02:19;100425.00;;;24.30
11849;BMP180;5983;49.966;8.052;2023-06-26T07:04:46;100425.00;;;24.40
11849;BMP180;5983;49.966;8.052;2023-06-26T07:07:18;100422.00;;;24.50
11849;BMP180;5983;49.966;8.052;2023-06-26T07:09:45;100412.00;;;24.60
11849;BMP180;5983;49.966;8.052;2023-06-26T07:12:12;100413.00;;;24.80
11849;BMP180;5983;49.966;8.052;2023-06-26T07:14:39;100400.00;;;24.90
11849;BMP180;5983;49.966;8.052;2023-06-26T07:17:06;100406.00;;;25.10
11849;BMP180;5983;49.966;8.052;2023-06-26T07:19:34;100402.00;;;25.30
11849;BMP180;5983;49.966;8.052;2023-06-26T07:22:01;100401.00;;;25.50
11849;BMP180;5983;49.966;8.052;2023-06-26T07:24:29;100399.00;;;25.60
11849;BMP180;5983;49.966;8.052;2023-06-26T07:26:56;100397.00;;;25.80
11849;BMP180;5983;49.966;8.052;2023-06-26T07:29:22;100406.00;;;26.00
11849;BMP180;5983;49.966;8.052;2023-06-26T07:31:49;100402.00;;;26.10
11849;BMP180;5983;49.966;8.052;2023-06-26T07:34:16;100404.00;;;26.10
11849;BMP180;5983;49.966;8.052;2023-06-26T07:36:43;100410.00;;;26.20
11849;BMP180;5983;49.966;8.052;2023-06-26T07:39:10;100413.00;;;26.20
11849;BMP180;5983;49.966;8.052;2023-06-26T07:41:38;100416.00;;;26.10
11849;BMP180;5983;49.966;8.052;2023-06-26T07:44:05;100428.00;;;26.00
11849;BMP180;5983;49.966;8.052;2023-06-26T07:46:32;100419.00;;;26.00
11849;BMP180;5983;49.966;8.052;2023-06-26T07:48:59;100421.00;;;26.20
11849;BMP180;5983;49.966;8.052;2023-06-26T07:51:26;100423.00;;;26.40
11849;BMP180;5983;49.966;8.052;2023-06-26T07:53:53;100419.00;;;26.60
11849;BMP180;5983;49.966;8.052;2023-06-26T07:56:20;100429.00;;;26.70
11849;BMP180;5983;49.966;8.052;2023-06-26T07:58:48;100425.00;;;26.90
11849;BMP180;5983;49.966;8.052;2023-06-26T08:01:15;100430.00;;;27.10
11849;BMP180;5983;49.966;8.052;2023-06-26T08:03:42;100438.00;;;27.40
11849;BMP180;5983;49.966;8.052;2023-06-26T08:06:09;100427.00;;;27.50
11849;BMP180;5983;49.966;8.052;2023-06-26T08:08:36;100435.00;;;27.60
11849;BMP180;5983;49.966;8.052;2023-06-26T08:11:03;100430.00;;;27.80
11849;BMP180;5983;49.966;8.052;2023-06-26T08:13:29;100433.00;;;28.00
11849;BMP180;5983;49.966;8.052;2023-06-26T08:15:58;100440.00;;;28.20
11849;BMP180;5983;49.966;8.052;2023-06-26T08:18:25;100431.00;;;28.40
11849;BMP180;5983;49.966;8.052;2023-06-26T08:20:52;100439.00;;;28.40
11849;BMP180;5983;49.966;8.052;2023-06-26T08:23:18;100439.00;;;28.50
11849;BMP180;5983;49.966;8.052;2023-06-26T08:25:45;100430.00;;;28.60
11849;BMP180;5983;49.966;8.052;2023-06-26T08:28:12;100439.00;;;28.80
11849;BMP180;5983;49.966;8.052;2023-06-26T08:30:39;100428.00;;;28.80
11849;BMP180;5983;49.966;8.052;2023-06-26T08:33:08;100431.00;;;28.90
11849;BMP180;5983;49.966;8.052;2023-06-26T08:35:38;100429.00;;;29.00
11849;BMP180;5983;49.966;8.052;2023-06-26T08:38:05;100434.00;;;29.00
11849;BMP180;5983;49.966;8.052;2023-06-26T08:40:32;100433.00;;;29.10
11849;BMP180;5983;49.966;8.052;2023-06-26T08:42:59;100439.00;;;29.10
11849;BMP180;5983;49.966;8.052;2023-06-26T08:45:26;100434.00;;;29.20
11849;BMP180;5983;49.966;8.052;2023-06-26T08:48:00;100436.00;;;29.20
11849;BMP180;5983;49.966;8.052;2023-06-26T08:50:34;100441.00;;;29.30
11849;BMP180;5983;49.966;8.052;2023-06-26T08:53:09;100441.00;;;29.40
11849;BMP180;5983;49.966;8.052;2023-06-26T08:55:42;100448.00;;;29.50
11849;BMP180;5983;49.966;8.052;2023-06-26T08:58:10;100443.00;;;29.60
11849;BMP180;5983;49.966;8.052;2023-06-26T09:00:38;100438.00;;;29.70
11849;BMP180;5983;49.966;8.052;2023-06-26T09:03:06;100445.00;;;29.80
11849;BMP180;5983;49.966;8.052;2023-06-26T09:05:36;100442.00;;;30.00
11849;BMP180;5983;49.966;8.052;2023-06-26T09:08:04;100443.00;;;30.20
11849;BMP180;5983;49.966;8.052;2023-06-26T09:10:31;100449.00;;;30.30
11849;BMP180;5983;49.966;8.052;2023-06-26T09:12:58;100455.00;;;30.40
11849;BMP180;5983;49.966;8.052;2023-06-26T09:15:27;100442.00;;;30.50
11849;BMP180;5983;49.966;8.052;2023-06-26T09:17:57;100465.00;;;30.80
11849;BMP180;5983;49.966;8.052;2023-06-26T09:20:28;100458.00;;;30.60
11849;BMP180;5983;49.966;8.052;2023-06-26T09:22:57;100468.00;;;30.40
11849;BMP180;5983;49.966;8.052;2023-06-26T09:25:24;100458.00;;;30.40
11849;BMP180;5983;49.966;8.052;2023-06-26T09:27:52;100461.00;;;30.20
11849;BMP180;5983;49.966;8.052;2023-06-26T09:30:19;100470.00;;;30.20
11849;BMP180;5983;49.966;8.052;2023-06-26T09:32:47;100466.00;;;30.30
11849;BMP180;5983;49.966;8.052;2023-06-26T09:35:14;100471.00;;;30.40
11849;BMP180;5983;49.966;8.052;2023-06-26T09:37:42;100474.00;;;30.60
11849;BMP180;5983;49.966;8.052;2023-06-26T09:40:11;100471.00;;;30.70
11849;BMP180;5983;49.966;8.052;2023-06-26T09:42:38;100475.00;;;30.80
11849;BMP180;5983;49.966;8.052;2023-06-26T09:45:05;100481.00;;;30.90
11849;BMP180;5983;49.966;8.052;2023-06-26T09:47:34;100475.00;;;31.00
11849;BMP180;5983;49.966;8.052;2023-06-26T09:50:03;100471.00;;;31.10
11849;BMP180;5983;49.966;8.052;2023-06-26T09:52:31;100474.00;;;31.10
11849;BMP180;5983;49.966;8.052;2023-06-26T09:55:11;100466.00;;;31.10
11849;BMP180;5983;49.966;8.052;2023-06-26T09:57:40;100460.00;;;31.10
11849;BMP180;5983;49.966;8.052;2023-06-26T10:00:09;100469.00;;;31.10
11849;BMP180;5983;49.966;8.052;2023-06-26T10:02:37;100465.00;;;31.20
11849;BMP180;5983;49.966;8.052;2023-06-26T10:05:05;100466.00;;;31.30
11849;BMP180;5983;49.966;8.052;2023-06-26T10:07:33;100461.00;;;31.20
11849;BMP180;5983;49.966;8.052;2023-06-26T10:10:02;100466.00;;;31.20
11849;BMP180;5983;49.966;8.052;2023-06-26T10:12:32;100460.00;;;31.30
11849;BMP180;5983;49.966;8.052;2023-06-26T10:15:02;100461.00;;;31.40
11849;BMP180;5983;49.966;8.052;2023-06-26T10:20:14;100460.00;;;31.60
11849;BMP180;5983;49.966;8.052;2023-06-26T10:22:45;100465.00;;;31.60
11849;BMP180;5983;49.966;8.052;2023-06-26T10:25:18;100457.00;;;31.60
11849;BMP180;5983;49.966;8.052;2023-06-26T10:27:53;100458.00;;;31.60
11849;BMP180;5983;49.966;8.052;2023-06-26T10:30:28;100450.00;;;31.40
11849;BMP180;5983;49.966;8.052;2023-06-26T10:32:56;100450.00;;;31.30
11849;BMP180;5983;49.966;8.052;2023-06-26T10:35:30;100459.00;;;31.30
11849;BMP180;5983;49.966;8.052;2023-06-26T10:38:02;100469.00;;;31.10
11849;BMP180;5983;49.966;8.052;2023-06-26T10:40:41;100452.00;;;31.10
11849;BMP180;5983;49.966;8.052;2023-06-26T10:43:12;100455.00;;;31.30
11849;BMP180;5983;49.966;8.052;2023-06-26T10:45:47;100465.00;;;31.50
11849;BMP180;5983;49.966;8.052;2023-06-26T10:48:18;100474.00;;;31.50
11849;BMP180;5983;49.966;8.052;2023-06-26T10:50:47;100481.00;;;31.40
11849;BMP180;5983;49.966;8.052;2023-06-26T10:53:23;100474.00;;;31.20
11849;BMP180;5983;49.966;8.052;2023-06-26T10:55:56;100466.00;;;31.20
11849;BMP180;5983;49.966;8.052;2023-06-26T10:58:41;100468.00;;;31.20
11849;BMP180;5983;49.966;8.052;2023-06-26T11:01:21;100460.00;;;31.40
11849;BMP180;5983;49.966;8.052;2023-06-26T11:04:00;100478.00;;;31.50
11849;BMP180;5983;49.966;8.052;2023-06-26T11:06:32;100472.00;;;31.40
11849;BMP180;5983;49.966;8.052;2023-06-26T11:09:06;100467.00;;;31.40
11849;BMP180;5983;49.966;8.052;2023-06-26T11:11:59;100475.00;;;31.60
11849;BMP180;5983;49.966;8.052;2023-06-26T11:14:32;100478.00;;;31.70
11849;BMP180;5983;49.966;8.052;2023-06-26T11:17:03;100473.00;;;31.80
11849;BMP180;5983;49.966;8.052;2023-06-26T11:19:31;100462.00;;;31.70
11849;BMP180;5983;49.966;8.052;2023-06-26T11:22:04;100484.00;;;31.70
11849;BMP180;5983;49.966;8.052;2023-06-26T11:24:33;100484.00;;;31.70
11849;BMP180;5983;49.966;8.052;2023-06-26T11:27:02;100476.00;;;31.70
11849;BMP180;5983;49.966;8.052;2023-06-26T11:29:33;100480.00;;;31.80
11849;BMP180;5983;49.966;8.052;2023-06-26T11:32:03;100476.00;;;31.80
11849;BMP180;5983;49.966;8.052;2023-06-26T11:34:36;100486.00;;;31.90
11849;BMP180;5983;49.966;8.052;2023-06-26T11:37:04;100485.00;;;32.10
11849;BMP180;5983;49.966;8.052;2023-06-26T11:39:39;100493.00;;;32.30
11849;BMP180;5983;49.966;8.052;2023-06-26T11:42:07;100490.00;;;32.30
11849;BMP180;5983;49.966;8.052;2023-06-26T11:44:58;100490.00;;;32.40
11849;BMP180;5983;49.966;8.052;2023-06-26T11:47:30;100497.00;;;32.40
11849;BMP180;5983;49.966;8.052;2023-06-26T11:49:57;100506.00;;;32.50
11849;BMP180;5983;49.966;8.052;2023-06-26T11:52:33;100499.00;;;32.50
11849;BMP180;5983;49.966;8.052;2023-06-26T11:55:01;100503.00;;;32.50
11849;BMP180;5983;49.966;8.052;2023-06-26T11:57:52;100511.00;;;32.40
11849;BMP180;5983;49.966;8.052;2023-06-26T12:00:26;100511.00;;;32.40
11849;BMP180;5983;49.966;8.052;2023-06-26T12:03:15;100514.00;;;32.50
11849;BMP180;5983;49.966;8.052;2023-06-26T12:05:57;100510.00;;;32.60
11849;BMP180;5983;49.966;8.052;2023-06-26T12:08:36;100510.00;;;32.50
11849;BMP180;5983;49.966;8.052;2023-06-26T12:11:04;100509.00;;;32.30
11849;BMP180;5983;49.966;8.052;2023-06-26T12:13:32;100515.00;;;32.30
11849;BMP180;5983;49.966;8.052;2023-06-26T12:16:04;100512.00;;;32.40
11849;BMP180;5983;49.966;8.052;2023-06-26T12:18:39;100525.00;;;32.40
11849;BMP180;5983;49.966;8.052;2023-06-26T12:22:17;100514.00;;;32.40
11849;BMP180;5983;49.966;8.052;2023-06-26T12:24:58;100511.00;;;32.40
11849;BMP180;5983;49.966;8.052;2023-06-26T12:27:48;100513.00;;;32.40
11849;BMP180;5983;49.966;8.052;2023-06-26T12:30:36;100512.00;;;32.40
11849;BMP180;5983;49.966;8.052;2023-06-26T12:33:14;100525.00;;;32.40
11849;BMP180;5983;49.966;8.052;2023-06-26T12:35:59;100520.00;;;32.40
11849;BMP180;5983;49.966;8.052;2023-06-26T12:38:33;100522.00;;;32.40
11849;BMP180;5983;49.966;8.052;2023-06-26T12:42:03;100521.00;;;32.40
11849;BMP180;5983;49.966;8.052;2023-06-26T12:44:43;100529.00;;;32.40
11849;BMP180;5983;49.966;8.052;2023-06-26T12:50:57;100522.00;;;32.30
11849;BMP180;5983;49.966;8.052;2023-06-26T12:53:52;100527.00;;;32.40
11849;BMP180;5983;49.966;8.052;2023-06-26T12:56:45;100520.00;;;32.40
11849;BMP180;5983;49.966;8.052;2023-06-26T12:59:37;100529.00;;;32.40
11849;BMP180;5983;49.966;8.052;2023-06-26T13:13:11;100523.00;;;32.00
11849;BMP180;5983;49.966;8.052;2023-06-26T13:16:06;100515.00;;;32.10
11849;BMP180;5983;49.966;8.052;2023-06-26T13:19:21;100534.00;;;32.10
11849;BMP180;5983;49.966;8.052;2023-06-26T13:22:36;100537.00;;;32.20
11849;BMP180;5983;49.966;8.052;2023-06-26T13:25:08;100541.00;;;32.30
11849;BMP180;5983;49.966;8.052;2023-06-26T13:27:36;100526.00;;;32.30
11849;BMP180;5983;49.966;8.052;2023-06-26T13:30:09;100540.00;;;32.20
11849;BMP180;5983;49.966;8.052;2023-06-26T13:32:36;100543.00;;;32.20
11849;BMP180;5983;49.966;8.052;2023-06-26T13:35:04;100543.00;;;32.30
11849;BMP180;5983;49.966;8.052;2023-06-26T13:37:32;100541.00;;;32.10
11849;BMP180;5983;49.966;8.052;2023-06-26T13:39:59;100543.00;;;32.00
11849;BMP180;5983;49.966;8.052;2023-06-26T13:42:28;100548.00;;;32.10
11849;BMP180;5983;49.966;8.052;2023-06-26T13:44:55;100546.00;;;32.20
11849;BMP180;5983;49.966;8.052;2023-06-26T13:47:24;100555.00;;;32.20
11849;BMP180;5983;49.966;8.052;2023-06-26T13:49:53;100566.00;;;32.10
11849;BMP180;5983;49.966;8.052;2023-06-26T13:52:20;100553.00;;;32.10
11849;BMP180;5983;49.966;8.052;2023-06-26T13:54:47;100557.00;;;31.90
11849;BMP180;5983;49.966;8.052;2023-06-26T13:57:14;100557.00;;;31.90
11849;BMP180;5983;49.966;8.052;2023-06-26T13:59:42;100573.00;;;31.90
11849;BMP180;5983;49.966;8.052;2023-06-26T14:02:17;100571.00;;;31.70
11849;BMP180;5983;49.966;8.052;2023-06-26T14:04:48;100568.00;;;31.60
11849;BMP180;5983;49.966;8.052;2023-06-26T14:07:15;100572.00;;;31.60
11849;BMP180;5983;49.966;8.052;2023-06-26T14:09:42;100566.00;;;31.50
11849;BMP180;5983;49.966;8.052;2023-06-26T14:12:09;100567.00;;;31.40
11849;BMP180;5983;49.966;8.052;2023-06-26T14:14:38;100566.00;;;31.50
11849;BMP180;5983;49.966;8.052;2023-06-26T14:17:07;100565.00;;;31.50
11849;BMP180;5983;49.966;8.052;2023-06-26T14:19:41;100556.00;;;31.50
11849;BMP180;5983;49.966;8.052;2023-06-26T14:22:10;100554.00;;;31.40
11849;BMP180;5983;49.966;8.052;2023-06-26T14:24:37;100550.00;;;31.30
11849;BMP180;5983;49.966;8.052;2023-06-26T14:27:06;100546.00;;;31.20
11849;BMP180;5983;49.966;8.052;2023-06-26T14:29:33;100552.00;;;31.20
11849;BMP180;5983;49.966;8.052;2023-06-26T14:32:00;100560.00;;;31.10
11849;BMP180;5983;49.966;8.052;2023-06-26T14:34:28;100563.00;;;31.10
11849;BMP180;5983;49.966;8.052;2023-06-26T14:36:55;100564.00;;;31.10
11849;BMP180;5983;49.966;8.052;2023-06-26T14:39:34;100558.00;;;31.00
11849;BMP180;5983;49.966;8.052;2023-06-26T14:42:21;100560.00;;;31.00
11849;BMP180;5983;49.966;8.052;2023-06-26T14:44:57;100565.00;;;30.90